Flight Track Log - Related Links

Times and Time Zones

All times are in EDT time to prevent confusion due to time zone crossing. See the GJS3649 flight status page for this flight to view local times or setup timezone preferences in your user account.

Time Position Orientation Groundspeed Altitude Reporting Facility
EDT Latitude Longitude Course Direction KTS MPH feet Rate Location/Type
Sun 07:13:08 PM 41.9228 -72.6744 242° Southwest 152 175 900  Level Boston Center
Sun 07:14:14 PM 41.9061 -72.7275 247° West 216 249 2,700 2,143 Climbing Boston Center
Sun 07:15:14 PM 41.8872 -72.8053 252° West 246 283 5,400 2,650 Climbing Boston Center
Sun 07:16:00 PM 41.9000 -73.2353 270° West  Level FlightAware
Sun 07:16:14 PM 41.8825 -72.9058 266° West 254 292 8,000  Level Boston Center
Sun 07:17:00 PM 41.8688 -73.3624 236° Southwest  Level FlightAware
Sun 07:17:14 PM 41.8906 -73.0117 276° West 267 307 10,400  Level Boston Center
Sun 07:18:00 PM 41.8142 -73.4813 242° Southwest  Level FlightAware
Sun 07:18:14 PM 41.8836 -73.1008 264° West 302 348 12,200  Level Boston Center
Sun 07:19:14 PM 41.8494 -73.2511 253° West 339 390 14,400 2,050 Climbing Boston Center
Sun 07:20:14 PM 41.8192 -73.3872 253° West 371 427 16,300 1,591 Climbing Boston Center
Sun 07:21:26 PM 41.7886 -73.5231 253° West 383 441 17,900 1,500 Climbing Boston Center
Sun 07:22:38 PM 41.7167 -73.6528 233° Southwest 394 453 19,900 1,846 Climbing Boston Center
Sun 07:24:41 PM 41.4864 -73.8339 211° Southwest 407 468 23,900 1,859 Climbing New Center
Sun 07:25:42 PM 41.3844 -73.9122 210° Southwest 419 482 25,600 1,388 Climbing New Center
Sun 07:26:42 PM 41.2800 -73.9931 210° Southwest 434 499 26,700 1,050 Climbing New Center
Sun 07:27:42 PM 41.1694 -74.0758 209° Southwest 445 512 27,700 645 Climbing New Center
Sun 07:28:43 PM 41.1061 -74.1800 231° Southwest 445 512 28,000 148 Climbing New Center
Sun 07:29:44 PM 41.0244 -74.3411 236° Southwest 460 529 28,000  Level New Center
Sun 07:30:42 PM 40.9511 -74.4883 237° Southwest 478 550 28,000  Level New Center
Sun 07:31:42 PM 40.8897 -74.6469 243° Southwest 483 556 28,000  Level New Center
Sun 07:32:43 PM 40.8242 -74.8022 241° Southwest 483 556 28,000  Level New Center
Sun 07:33:44 PM 40.7542 -74.9542 239° Southwest 483 556 28,000 -134 Level New Center
Sun 07:35:00 PM 40.7123 -75.1208 252° West  Level FlightAware
Sun 07:35:42 PM 40.6161 -75.2519 252° West 488 562 27,600  Level New Center
Sun 07:36:42 PM 40.5458 -75.4003 238° Southwest 488 562 25,600 -1,983 Descending New Center
Sun 07:37:43 PM 40.4775 -75.5458 238° Southwest 483 556 23,600 -1,983 Descending New Center
Sun 07:38:43 PM 40.4111 -75.6911 239° Southwest 477 549 21,600 -1,815 Descending New Center
Sun 07:39:42 PM 40.3428 -75.8306 237° Southwest 472 543 20,000 -800 Descending New Center
Sun 07:40:43 PM 40.2694 -75.9803 237° Southwest 460 529 20,000 -250 Level New Center
Sun 07:41:42 PM 40.2050 -76.1169 238° Southwest 454 522 19,500 -807 Descending New Center
Sun 07:42:42 PM 40.1453 -76.2400 238° Southwest 431 496 18,400 -992 Descending New Center
Sun 07:43:43 PM 40.0850 -76.3653 238° Southwest 408 470 17,500 -1,000 Descending New Center
Sun 07:45:54 PM 39.9667 -76.6333 240° Southwest 402 463 15,200 -785 Descending Potomac TRACON
Sun 07:46:54 PM 39.9167 -76.7500 241° Southwest 396 456 15,000 -100 Descending Potomac TRACON
Sun 07:47:54 PM 39.8500 -76.8667 233° Southwest 377 434 15,000 -470 Level Potomac TRACON
Sun 07:48:49 PM 39.8000 -76.9833 241° Southwest 377 434 14,100 -1,461 Descending Potomac TRACON
Sun 07:49:49 PM 39.7500 -77.1000 241° Southwest 381 438 12,200 -1,950 Descending Potomac TRACON
Sun 07:50:49 PM 39.6833 -77.2167 233° Southwest 378 435 10,200 -1,500 Descending Potomac TRACON
Sun 07:51:49 PM 39.6500 -77.3000 243° Southwest 342 394 9,200 -1,300 Descending Potomac TRACON
Sun 07:52:49 PM 39.5833 -77.3667 218° Southwest 279 321 7,600 -1,632 Descending Potomac TRACON
Sun 07:53:43 PM 39.5333 -77.4000 207° Southwest 266 306 6,100 -950 Descending Potomac TRACON
Sun 07:54:49 PM 39.4500 -77.4333 197° South 259 298 5,700 -524 Descending Potomac TRACON
Sun 07:55:49 PM 39.3667 -77.4333 180° South 261 300 5,000 -600 Descending Potomac TRACON
Sun 07:56:49 PM 39.3000 -77.4333 180° South 261 300 4,500 -500 Descending Potomac TRACON
Sun 07:57:49 PM 39.2333 -77.4333 180° South 252 290 4,000 -263 Descending Potomac TRACON
Sun 07:58:43 PM 39.1667 -77.4333 180° South 231 266 4,000 -158 Level Potomac TRACON
Sun 07:59:43 PM 39.1167 -77.4333 180° South 184 212 3,700 -750 Descending Potomac TRACON
Sun 08:00:43 PM 39.0667 -77.4333 180° South 184 212 2,500 -1,041 Descending Potomac TRACON
Sun 08:01:44 PM 39.0167 -77.4333 180° South 161 185 1,600 -843 Descending Potomac TRACON
Sun 08:02:44 PM 38.9833 -77.4333 180° South 142 163 800 -800 Descending Potomac TRACON

Login

Don't have an account? Register now (free) for customized features, flight alerts, and more!